createdAt,value
2019-06-26T00:00:22.294Z,17.30
2019-06-26T00:02:49.178Z,17.55
2019-06-26T00:05:16.096Z,16.45
2019-06-26T00:07:43.200Z,16.95
2019-06-26T00:10:10.244Z,18.40
2019-06-26T00:12:37.149Z,15.38
2019-06-26T00:15:05.691Z,19.85
2019-06-26T00:17:57.559Z,16.60
2019-06-26T00:20:24.544Z,20.00
2019-06-26T00:22:51.462Z,16.02
2019-06-26T00:25:20.526Z,16.07
2019-06-26T00:27:47.472Z,19.82
2019-06-26T00:30:14.748Z,16.70
2019-06-26T00:32:44.924Z,17.55
2019-06-26T00:35:12.708Z,16.10
2019-06-26T00:37:54.195Z,16.87
2019-06-26T00:40:21.278Z,16.30
2019-06-26T00:42:48.303Z,20.45
2019-06-26T00:45:15.294Z,18.32
2019-06-26T00:48:05.811Z,16.73
2019-06-26T00:50:32.749Z,18.00
2019-06-26T00:52:59.637Z,18.05
2019-06-26T00:55:26.604Z,16.25
2019-06-26T00:57:53.549Z,17.92
2019-06-26T01:00:24.078Z,18.07
2019-06-26T01:02:50.972Z,16.20
2019-06-26T01:05:22.211Z,16.80
2019-06-26T01:07:49.145Z,18.00
2019-06-26T01:10:16.644Z,19.23
2019-06-26T01:12:43.623Z,20.35
2019-06-26T01:15:18.817Z,16.87
2019-06-26T01:17:45.743Z,18.50
2019-06-26T01:20:12.896Z,17.02
2019-06-26T01:22:39.811Z,18.90
2019-06-26T01:25:08.867Z,15.55
2019-06-26T01:27:35.697Z,18.50
2019-06-26T01:30:05.150Z,16.27
2019-06-26T01:32:33.126Z,16.07
2019-06-26T01:35:00.236Z,20.80
2019-06-26T01:37:27.157Z,16.02
2019-06-26T01:39:54.147Z,18.73
2019-06-26T01:42:20.909Z,16.05
2019-06-26T01:44:49.755Z,18.92
2019-06-26T01:47:16.681Z,19.65
2019-06-26T01:49:54.026Z,16.85
2019-06-26T01:52:20.978Z,17.48
2019-06-26T01:54:47.892Z,15.83
2019-06-26T01:57:24.943Z,19.80
2019-06-26T01:59:51.832Z,18.75
2019-06-26T02:02:18.733Z,20.75
2019-06-26T02:04:47.824Z,17.30
2019-06-26T02:07:14.698Z,19.00
2019-06-26T02:09:42.287Z,22.85
2019-06-26T02:12:09.265Z,21.65
2019-06-26T02:14:36.171Z,20.48
2019-06-26T02:17:03.066Z,18.82
2019-06-26T02:19:29.998Z,17.52
2019-06-26T02:21:56.926Z,21.48
2019-06-26T02:24:23.866Z,19.45
2019-06-26T02:26:50.805Z,18.50
2019-06-26T02:29:17.760Z,17.42
2019-06-26T02:31:44.659Z,17.35
2019-06-26T02:34:11.617Z,19.77
2019-06-26T02:36:38.508Z,21.80
2019-06-26T02:39:06.509Z,18.12
2019-06-26T02:41:37.766Z,18.80
2019-06-26T02:44:04.650Z,16.93
2019-06-26T02:46:32.688Z,20.82
2019-06-26T02:48:59.638Z,17.55
2019-06-26T02:51:26.576Z,17.10
2019-06-26T02:53:53.503Z,18.80
2019-06-26T02:56:20.430Z,16.32
2019-06-26T02:59:01.706Z,18.60
2019-06-26T03:01:28.747Z,16.97
2019-06-26T03:04:04.713Z,17.50
2019-06-26T03:06:31.654Z,17.37
2019-06-26T03:08:58.716Z,19.32
2019-06-26T03:11:25.497Z,16.07
2019-06-26T03:13:52.435Z,18.23
2019-06-26T03:16:19.356Z,16.67
2019-06-26T03:18:46.272Z,19.60
2019-06-26T03:21:13.266Z,19.00
2019-06-26T03:23:40.240Z,20.70
2019-06-26T03:26:07.284Z,17.15
2019-06-26T03:28:34.252Z,17.90
2019-06-26T03:31:01.129Z,18.52
2019-06-26T03:33:28.105Z,16.40
2019-06-26T03:35:56.245Z,16.40
2019-06-26T03:38:23.228Z,15.48
2019-06-26T03:40:50.171Z,15.53
2019-06-26T03:43:17.110Z,17.00
2019-06-26T03:45:44.280Z,21.42
2019-06-26T03:48:11.107Z,20.62
2019-06-26T03:50:38.110Z,15.72
2019-06-26T03:53:05.128Z,18.25
2019-06-26T03:55:32.091Z,14.93
2019-06-26T03:57:59.098Z,17.65
2019-06-26T04:00:32.545Z,14.65
2019-06-26T04:02:59.551Z,17.67
2019-06-26T04:05:26.395Z,13.62
2019-06-26T04:07:57.922Z,15.05
2019-06-26T04:10:24.911Z,14.53
2019-06-26T04:12:51.839Z,19.50
2019-06-26T04:15:18.811Z,13.93
2019-06-26T04:17:46.130Z,13.60
2019-06-26T04:20:13.215Z,16.45
2019-06-26T04:22:40.201Z,17.92
2019-06-26T04:25:07.478Z,18.75
2019-06-26T04:27:34.457Z,20.12
2019-06-26T04:30:10.072Z,20.02
2019-06-26T04:32:38.184Z,22.32
2019-06-26T04:35:05.732Z,16.93
2019-06-26T04:37:32.736Z,20.77
2019-06-26T04:40:00.884Z,12.70
2019-06-26T04:42:33.906Z,16.37
2019-06-26T04:45:00.814Z,15.05
2019-06-26T04:47:27.735Z,13.10
2019-06-26T04:49:54.860Z,12.10
2019-06-26T04:52:21.793Z,14.98
2019-06-26T04:54:48.732Z,16.50
2019-06-26T04:57:19.378Z,20.62
2019-06-26T04:59:46.310Z,15.93
2019-06-26T05:02:13.318Z,13.98
2019-06-26T05:04:40.251Z,14.50
2019-06-26T05:07:07.183Z,21.87
2019-06-26T05:09:34.144Z,15.65
2019-06-26T05:12:01.152Z,17.17
2019-06-26T05:14:28.041Z,16.27
2019-06-26T05:16:54.951Z,15.28
2019-06-26T05:19:21.958Z,16.45
2019-06-26T05:21:50.117Z,14.28
2019-06-26T05:24:17.054Z,14.10
2019-06-26T05:26:43.991Z,15.68
2019-06-26T05:29:10.965Z,15.55
2019-06-26T05:31:37.871Z,16.02
2019-06-26T05:34:04.960Z,14.90
2019-06-26T05:36:31.983Z,18.45
2019-06-26T05:38:58.969Z,19.95
2019-06-26T05:41:26.010Z,18.52
2019-06-26T05:43:52.906Z,17.23
2019-06-26T05:46:30.515Z,14.28
2019-06-26T05:48:48.672Z,15.13
2019-06-26T05:51:15.597Z,15.20
2019-06-26T05:53:42.611Z,18.17
2019-06-26T05:56:09.600Z,14.43
2019-06-26T05:58:41.645Z,14.75
2019-06-26T06:01:08.575Z,17.40
2019-06-26T06:03:35.534Z,15.83
2019-06-26T06:06:02.497Z,16.65
2019-06-26T06:08:29.403Z,17.23
2019-06-26T06:10:58.496Z,13.72
2019-06-26T06:13:25.674Z,12.30
2019-06-26T06:15:52.578Z,17.90
2019-06-26T06:18:26.665Z,14.00
2019-06-26T06:20:53.523Z,14.18
2019-06-26T06:23:22.602Z,15.03
2019-06-26T06:25:49.646Z,15.35
2019-06-26T06:28:16.705Z,14.33
2019-06-26T06:30:43.629Z,13.85
2019-06-26T06:33:10.526Z,14.10
2019-06-26T06:35:37.579Z,18.32
2019-06-26T06:38:04.588Z,16.00
2019-06-26T06:40:44.487Z,12.37
2019-06-26T06:43:12.974Z,15.20
2019-06-26T06:45:39.918Z,12.78
2019-06-26T06:51:29.636Z,22.30
2019-06-26T06:53:56.578Z,16.42
2019-06-26T06:56:24.727Z,16.90
2019-06-26T06:58:51.675Z,16.52
2019-06-26T07:01:20.754Z,17.85
2019-06-26T07:03:54.822Z,17.45
2019-06-26T07:06:21.918Z,15.38
2019-06-26T07:08:49.955Z,12.50
2019-06-26T07:11:16.933Z,11.10
2019-06-26T07:13:43.903Z,12.73
2019-06-26T07:16:10.859Z,18.10
2019-06-26T07:18:37.710Z,12.70
2019-06-26T07:21:04.637Z,12.78
2019-06-26T07:23:37.798Z,10.95
2019-06-26T07:26:04.759Z,11.45
2019-06-26T07:28:32.364Z,12.03
2019-06-26T07:30:59.399Z,21.25
2019-06-26T07:33:26.360Z,10.45
2019-06-26T07:35:53.303Z,9.78
2019-06-26T07:38:20.399Z,11.10
2019-06-26T07:40:47.576Z,14.10
2019-06-26T07:43:16.571Z,11.35
2019-06-26T07:45:43.176Z,10.23
2019-06-26T07:48:10.338Z,11.70
2019-06-26T07:50:37.250Z,12.58
2019-06-26T07:53:04.329Z,10.85
2019-06-26T07:55:40.684Z,9.55
2019-06-26T07:58:07.756Z,9.08
2019-06-26T08:00:34.812Z,16.12
2019-06-26T08:03:04.903Z,13.60
2019-06-26T08:05:31.817Z,11.60
2019-06-26T08:07:58.725Z,11.60
2019-06-26T08:10:25.767Z,16.05
2019-06-26T08:12:52.819Z,9.60
2019-06-26T08:15:19.839Z,7.17
2019-06-26T08:17:59.866Z,7.25
2019-06-26T08:20:16.051Z,11.33
2019-06-26T08:22:43.015Z,12.60
2019-06-26T08:25:10.931Z,7.58
2019-06-26T08:27:37.875Z,10.85
2019-06-26T08:30:06.699Z,13.50
2019-06-26T08:32:33.708Z,15.58
2019-06-26T08:35:00.632Z,11.97
2019-06-26T08:37:27.623Z,12.13
2019-06-26T08:39:54.549Z,9.28
2019-06-26T08:42:22.536Z,12.10
2019-06-26T08:44:49.486Z,9.33
2019-06-26T08:47:16.399Z,12.80
2019-06-26T08:49:43.340Z,12.18
2019-06-26T08:52:10.241Z,10.55
2019-06-26T08:54:37.303Z,12.90
2019-06-26T08:57:04.277Z,13.80
2019-06-26T08:59:31.221Z,8.65
2019-06-26T09:01:58.195Z,9.35
2019-06-26T09:04:25.299Z,7.08
2019-06-26T09:06:52.514Z,14.30
2019-06-26T09:09:19.494Z,8.18
2019-06-26T09:11:46.504Z,11.22
2019-06-26T09:14:13.667Z,13.15
2019-06-26T09:16:40.560Z,8.55
2019-06-26T09:19:07.512Z,6.85
2019-06-26T09:21:35.641Z,16.52
2019-06-26T09:24:02.627Z,7.25
2019-06-26T09:26:29.639Z,8.73
2019-06-26T09:28:56.640Z,9.80
2019-06-26T09:31:23.709Z,6.40
2019-06-26T09:33:50.688Z,9.78
2019-06-26T09:36:17.569Z,9.08
2019-06-26T09:38:44.370Z,8.33
2019-06-26T09:41:11.361Z,14.75
2019-06-26T09:43:38.378Z,6.78
2019-06-26T09:46:05.564Z,7.12
2019-06-26T09:48:32.506Z,7.80
2019-06-26T09:50:59.488Z,10.90
2019-06-26T09:53:26.441Z,10.08
2019-06-26T09:55:53.376Z,6.70
2019-06-26T09:58:20.364Z,11.08
2019-06-26T10:00:47.336Z,7.95
2019-06-26T10:03:14.355Z,8.75
2019-06-26T10:05:42.909Z,7.90
2019-06-26T10:08:09.883Z,7.70
2019-06-26T10:10:36.843Z,7.83
2019-06-26T10:13:03.887Z,7.33
2019-06-26T10:15:30.844Z,6.53
2019-06-26T10:17:57.899Z,9.33
2019-06-26T10:20:24.805Z,10.23
2019-06-26T10:22:51.834Z,11.70
2019-06-26T10:25:20.581Z,8.68
2019-06-26T10:27:47.586Z,8.40
2019-06-26T10:30:15.728Z,8.38
2019-06-26T10:32:42.626Z,6.05
2019-06-26T10:35:09.784Z,6.05
2019-06-26T10:37:36.690Z,9.78
2019-06-26T10:40:04.066Z,8.80
2019-06-26T10:42:31.012Z,10.43
2019-06-26T10:44:57.922Z,9.50
2019-06-26T10:47:24.866Z,8.98
2019-06-26T10:49:52.006Z,5.58
2019-06-26T10:52:18.951Z,9.88
2019-06-26T10:54:45.889Z,8.75
2019-06-26T10:57:12.891Z,9.55
2019-06-26T10:59:39.794Z,6.97
2019-06-26T11:02:07.643Z,10.65
2019-06-26T11:04:34.534Z,7.85
2019-06-26T11:07:01.482Z,7.78
2019-06-26T11:09:28.486Z,12.90
2019-06-26T11:11:55.437Z,9.18
2019-06-26T11:14:22.388Z,5.97
2019-06-26T11:16:49.421Z,7.17
2019-06-26T11:19:16.294Z,8.93
2019-06-26T11:21:43.335Z,11.50
2019-06-26T11:24:10.334Z,11.90
2019-06-26T11:26:37.341Z,8.83
2019-06-26T11:29:04.269Z,5.55
2019-06-26T11:31:31.270Z,7.70
2019-06-26T11:33:58.123Z,7.17
2019-06-26T11:36:25.175Z,5.85
2019-06-26T11:38:52.216Z,8.68
2019-06-26T11:41:20.118Z,5.22
2019-06-26T11:43:48.060Z,6.62
2019-06-26T11:46:19.121Z,7.08
2019-06-26T11:48:46.092Z,5.30
2019-06-26T11:51:15.341Z,8.20
2019-06-26T11:53:43.851Z,7.53
2019-06-26T11:56:11.167Z,7.17
2019-06-26T11:59:21.223Z,7.33
2019-06-26T12:01:48.199Z,4.85
2019-06-26T12:04:24.694Z,6.25
2019-06-26T12:06:51.689Z,4.97
2019-06-26T12:09:18.805Z,7.20
2019-06-26T12:11:45.763Z,4.60
2019-06-26T12:14:12.790Z,5.10
2019-06-26T12:16:39.923Z,7.50
2019-06-26T12:19:06.919Z,6.22
2019-06-26T12:22:00.055Z,5.30
2019-06-26T12:24:27.128Z,6.87
2019-06-26T12:27:00.313Z,6.53
2019-06-26T12:29:27.256Z,6.05
2019-06-26T12:31:54.267Z,6.10
2019-06-26T12:34:56.979Z,10.53
2019-06-26T12:39:52.514Z,9.13
2019-06-26T12:42:19.625Z,5.53
2019-06-26T12:44:46.682Z,5.97
2019-06-26T12:47:13.599Z,8.53
2019-06-26T12:49:40.671Z,7.28
2019-06-26T12:52:07.707Z,24.80
2019-06-26T12:54:34.752Z,8.83
2019-06-26T12:57:01.725Z,10.82
2019-06-26T12:59:28.670Z,7.85
2019-06-26T13:01:55.693Z,5.37
2019-06-26T13:04:22.680Z,9.15
2019-06-26T13:06:49.629Z,6.15
2019-06-26T13:09:16.604Z,5.17
2019-06-26T13:11:43.653Z,6.62
2019-06-26T13:14:14.620Z,6.28
2019-06-26T13:16:41.648Z,7.85
2019-06-26T13:19:08.668Z,5.25
2019-06-26T13:21:35.588Z,5.00
2019-06-26T13:24:08.479Z,10.18
2019-06-26T13:26:35.689Z,5.90
2019-06-26T13:29:02.701Z,5.53
2019-06-26T13:31:29.698Z,5.45
2019-06-26T13:33:56.666Z,7.42
2019-06-26T13:36:23.652Z,6.58
2019-06-26T13:38:56.613Z,5.15
2019-06-26T13:41:23.719Z,5.40
2019-06-26T13:43:50.700Z,6.60
2019-06-26T13:46:17.718Z,9.75
2019-06-26T13:48:55.301Z,5.42
2019-06-26T13:51:22.386Z,7.17
2019-06-26T13:53:49.380Z,5.35
2019-06-26T13:56:16.378Z,7.92
2019-06-26T13:58:43.434Z,5.35
2019-06-26T14:01:10.526Z,7.45
2019-06-26T14:03:37.613Z,7.75
2019-06-26T14:06:17.717Z,8.38
2019-06-26T14:08:44.777Z,10.88
2019-06-26T14:11:12.071Z,5.70
2019-06-26T14:13:41.755Z,5.80
2019-06-26T14:16:45.440Z,7.00
2019-06-26T14:19:12.496Z,6.20
2019-06-26T14:21:39.501Z,8.68
2019-06-26T14:24:06.635Z,6.42
2019-06-26T14:26:33.733Z,6.92
2019-06-26T14:29:20.837Z,5.20
2019-06-26T14:31:48.907Z,5.87
2019-06-26T14:34:16.015Z,7.08
2019-06-26T14:36:43.018Z,8.15
2019-06-26T14:39:10.135Z,8.65
2019-06-26T14:41:39.219Z,7.70
2019-06-26T14:44:05.932Z,6.45
2019-06-26T14:46:32.924Z,11.03
2019-06-26T14:49:01.162Z,8.78
2019-06-26T14:51:41.200Z,7.40
2019-06-26T14:53:57.053Z,10.18
2019-06-26T14:56:25.408Z,6.45
2019-06-26T14:58:53.378Z,6.08
2019-06-26T15:01:20.545Z,9.18
2019-06-26T15:03:47.566Z,6.78
2019-06-26T15:06:16.763Z,7.35
2019-06-26T15:08:43.395Z,6.65
2019-06-26T15:11:11.492Z,6.25
2019-06-26T15:13:46.313Z,6.80
2019-06-26T15:16:13.365Z,5.03
2019-06-26T15:18:40.330Z,8.30
2019-06-26T15:21:07.322Z,9.38
2019-06-26T15:23:34.317Z,9.63
2019-06-26T15:26:02.407Z,8.95
2019-06-26T15:28:29.362Z,6.42
2019-06-26T15:30:56.429Z,8.70
2019-06-26T15:33:23.460Z,5.35
2019-06-26T15:35:50.643Z,6.22
2019-06-26T15:38:50.914Z,9.10
2019-06-26T15:41:17.869Z,5.78
2019-06-26T15:43:46.174Z,7.08
2019-06-26T15:46:13.245Z,6.30
2019-06-26T15:48:40.197Z,6.37
2019-06-26T15:51:07.171Z,5.12
2019-06-26T15:53:34.160Z,8.18
2019-06-26T15:56:01.130Z,6.87
2019-06-26T15:58:28.125Z,6.28
2019-06-26T16:01:07.326Z,8.88
2019-06-26T16:03:34.384Z,6.60
2019-06-26T16:09:18.511Z,7.97
2019-06-26T16:11:45.457Z,9.73
2019-06-26T16:14:23.414Z,6.33
2019-06-26T16:16:52.324Z,6.28
2019-06-26T16:19:21.071Z,5.58
2019-06-26T16:21:48.023Z,6.30
2019-06-26T16:24:14.995Z,6.25
2019-06-26T16:30:29.279Z,6.03
2019-06-26T16:32:57.052Z,6.85
2019-06-26T16:35:24.531Z,7.80
2019-06-26T16:37:51.596Z,8.90
2019-06-26T16:40:18.587Z,6.92
2019-06-26T16:42:45.547Z,9.33
2019-06-26T16:45:12.693Z,6.75
2019-06-26T16:47:51.502Z,7.08
2019-06-26T16:50:18.733Z,9.40
2019-06-26T16:52:49.647Z,9.90
2019-06-26T16:55:14.493Z,6.95
2019-06-26T16:57:41.507Z,7.67
2019-06-26T17:00:10.224Z,11.20
2019-06-26T17:02:38.572Z,10.43
2019-06-26T17:05:05.692Z,6.22
2019-06-26T17:07:32.863Z,9.08
2019-06-26T17:09:59.935Z,10.40
2019-06-26T17:12:26.923Z,7.62
2019-06-26T17:14:53.908Z,6.55
2019-06-26T17:17:20.857Z,12.25
2019-06-26T17:19:47.821Z,9.13
2019-06-26T17:22:14.764Z,8.13
2019-06-26T17:24:41.759Z,6.97
2019-06-26T17:27:08.769Z,13.28
2019-06-26T17:29:35.772Z,7.17
2019-06-26T17:32:02.815Z,10.60
2019-06-26T17:34:29.937Z,8.55
2019-06-26T17:36:56.981Z,6.28
2019-06-26T17:39:24.007Z,8.78
2019-06-26T17:41:50.961Z,6.62
2019-06-26T17:44:17.951Z,8.78
2019-06-26T17:46:44.967Z,9.25
2019-06-26T17:49:11.970Z,5.95
2019-06-26T17:51:38.947Z,12.85
2019-06-26T17:54:05.976Z,11.55
2019-06-26T17:56:32.955Z,7.75
2019-06-26T17:59:04.977Z,6.90
2019-06-26T18:01:31.975Z,8.98
2019-06-26T18:09:56.812Z,13.95
2019-06-26T18:12:24.031Z,7.08
2019-06-26T18:14:50.984Z,8.78
2019-06-26T18:17:22.395Z,12.75
2019-06-26T18:19:49.784Z,8.23
2019-06-26T18:22:30.232Z,7.62
2019-06-26T18:24:57.196Z,8.68
2019-06-26T18:27:24.184Z,7.97
2019-06-26T18:29:51.127Z,11.65
2019-06-26T18:32:18.084Z,10.30
2019-06-26T18:34:56.769Z,8.45
2019-06-26T18:37:23.839Z,8.05
2019-06-26T18:39:50.882Z,10.70
2019-06-26T18:42:17.989Z,12.00
2019-06-26T18:44:45.079Z,8.25
2019-06-26T18:47:13.200Z,11.00
2019-06-26T18:49:40.205Z,8.75
2019-06-26T18:52:07.962Z,10.68
2019-06-26T18:54:35.985Z,9.85
2019-06-26T18:57:02.972Z,11.65
2019-06-26T18:59:34.046Z,10.18
2019-06-26T19:02:01.052Z,10.88
2019-06-26T19:04:27.990Z,8.50
2019-06-26T19:07:04.055Z,11.50
2019-06-26T19:09:32.075Z,9.83
2019-06-26T19:11:59.087Z,9.10
2019-06-26T19:14:26.343Z,9.45
2019-06-26T19:16:53.519Z,10.25
2019-06-26T19:19:38.551Z,9.05
2019-06-26T19:22:05.488Z,9.98
2019-06-26T19:24:32.374Z,12.30
2019-06-26T19:26:59.366Z,9.70
2019-06-26T19:29:26.314Z,9.85
2019-06-26T19:31:53.265Z,10.75
2019-06-26T19:34:20.237Z,10.68
2019-06-26T19:36:50.525Z,10.55
2019-06-26T19:39:20.563Z,11.80
2019-06-26T19:41:47.259Z,10.85
2019-06-26T19:44:16.460Z,12.58
2019-06-26T19:46:43.593Z,11.08
2019-06-26T19:49:10.516Z,10.78
2019-06-26T19:51:37.459Z,12.10
2019-06-26T19:54:04.727Z,10.38
2019-06-26T19:56:31.839Z,11.28
2019-06-26T19:59:35.924Z,10.72
2019-06-26T20:02:02.939Z,11.73
2019-06-26T20:04:29.841Z,16.17
2019-06-26T20:06:56.748Z,12.13
2019-06-26T20:09:24.866Z,11.43
2019-06-26T20:11:51.805Z,15.68
2019-06-26T20:14:18.760Z,12.88
2019-06-26T20:16:45.798Z,12.63
2019-06-26T20:19:12.716Z,13.48
2019-06-26T20:21:39.667Z,11.85
2019-06-26T20:24:06.561Z,12.23
2019-06-26T20:26:33.450Z,11.08
2019-06-26T20:29:00.395Z,11.73
2019-06-26T20:31:27.390Z,14.63
2019-06-26T20:33:54.333Z,12.85
2019-06-26T20:36:21.206Z,12.93
2019-06-26T20:38:48.157Z,15.78
2019-06-26T20:41:15.163Z,14.03
2019-06-26T20:43:42.086Z,14.83
2019-06-26T20:46:09.084Z,9.23
2019-06-26T20:48:36.226Z,16.55
2019-06-26T20:51:14.123Z,11.75
2019-06-26T20:53:41.079Z,14.55
2019-06-26T20:56:08.052Z,12.07
2019-06-26T20:58:35.045Z,15.45
2019-06-26T21:01:01.997Z,12.55
2019-06-26T21:03:28.973Z,12.78
2019-06-26T21:05:55.922Z,13.53
2019-06-26T21:08:22.757Z,11.40
2019-06-26T21:10:49.782Z,11.28
2019-06-26T21:13:23.629Z,11.95
2019-06-26T21:15:52.885Z,12.63
2019-06-26T21:18:19.301Z,15.80
2019-06-26T21:20:46.339Z,15.55
2019-06-26T21:23:18.857Z,12.45
2019-06-26T21:25:41.983Z,12.20
2019-06-26T21:28:08.894Z,12.35
2019-06-26T21:30:40.208Z,12.20
2019-06-26T21:33:08.240Z,15.98
2019-06-26T21:35:35.039Z,13.58
2019-06-26T21:38:02.079Z,12.45
2019-06-26T21:40:31.057Z,11.88
2019-06-26T21:42:58.093Z,12.68
2019-06-26T21:45:25.091Z,11.48
2019-06-26T21:47:51.923Z,12.40
2019-06-26T21:50:19.170Z,13.10
2019-06-26T21:52:46.314Z,11.88
2019-06-26T21:55:14.178Z,11.25
2019-06-26T21:57:59.432Z,11.90
2019-06-26T22:00:46.428Z,11.05
2019-06-26T22:03:31.600Z,12.43
2019-06-26T22:06:00.448Z,15.70
2019-06-26T22:08:29.174Z,16.15
2019-06-26T22:10:58.027Z,12.00
2019-06-26T22:13:25.002Z,13.90
2019-06-26T22:15:53.140Z,14.58
2019-06-26T22:18:20.149Z,11.97
2019-06-26T22:20:46.989Z,15.30
2019-06-26T22:23:14.013Z,14.05
2019-06-26T22:25:50.804Z,13.18
2019-06-26T22:28:10.147Z,14.58
2019-06-26T22:30:37.103Z,14.75
2019-06-26T22:33:04.076Z,12.80
2019-06-26T22:35:30.988Z,12.88
2019-06-26T22:37:57.889Z,13.18
2019-06-26T22:40:24.879Z,13.28
2019-06-26T22:42:51.873Z,15.93
2019-06-26T22:45:18.827Z,11.63
2019-06-26T22:47:45.758Z,14.38
2019-06-26T22:50:13.014Z,14.05
2019-06-26T22:52:39.946Z,15.00
2019-06-26T22:55:07.074Z,12.93
2019-06-26T22:57:34.007Z,12.98
2019-06-26T23:00:03.912Z,16.12
2019-06-26T23:02:30.958Z,17.17
2019-06-26T23:05:04.779Z,11.88
2019-06-26T23:07:31.658Z,13.50
2019-06-26T23:09:58.646Z,13.88
2019-06-26T23:12:25.601Z,17.45
2019-06-26T23:14:52.524Z,15.48
2019-06-26T23:17:19.474Z,16.40
2019-06-26T23:19:46.373Z,16.80
2019-06-26T23:22:13.290Z,15.38
2019-06-26T23:28:16.083Z,16.42
2019-06-26T23:30:43.030Z,13.20
2019-06-26T23:33:09.929Z,17.48
2019-06-26T23:35:36.901Z,17.37
2019-06-26T23:38:03.946Z,16.90
2019-06-26T23:40:30.856Z,14.10
2019-06-26T23:42:59.650Z,19.17
2019-06-26T23:45:26.571Z,14.87
2019-06-26T23:47:53.516Z,18.25
2019-06-26T23:50:21.494Z,15.45
2019-06-26T23:52:48.436Z,14.93
2019-06-26T23:55:15.376Z,16.00
2019-06-26T23:57:57.877Z,17.23
